Terminal Aerodrome Forecast
Issued by NWS

Home | Current Version | Previous Version | Text Only | Print | Product List | Glossary On
Versions: 1 2 3 4 5 6 7 8 9 10 11 12 13 14 15 16 17 18 19 20 21
518
FTUS41 KILN 292026 AAB
TAFLUK
TAF AMD
KLUK 292026Z 2920/3018 08005KT P6SM VCSH SCT035 OVC080
     FM292200 VRB04KT P6SM -SHRA SCT025 BKN040
     FM300300 VRB04KT 3SM SHRA BR OVC015
     FM300900 VRB04KT 4SM -SHRA BR OVC008
     FM301300 14004KT P6SM VCSH OVC015=

USA.gov is the U.S. government's official web portal to all federal, state and local government web resources and services.